• Join FlightAware (Why Join?)
  • Login
  • US Flag 
03:07PM EDT


 

Airport Tracker/Info


-or-


 

Live Flight TrackerFlight Track Log ✈ ASQ5875 ✈ 02-May-2013 ✈ KORD - KLEX

Flight Track Log - Related Links

Times and Time Zones

All times are in EDT time to prevent confusion due to time zone crossing. See the ASQ5875 flight status page for this flight to view local times or setup timezone preferences in your user account.

Time Position Orientation Groundspeed Altitude Reporting Facility
EDT Latitude Longitude Course Direction KTS MPH feet Rate Location/Type
10:38PM 41.9667 -87.8667 154° Southeast 157 181 3,000  Level Chicago TRACON
10:39PM 41.9167 -87.8333 154° Southeast 207 238 5,900 2,400 Climbing Chicago TRACON
10:42PM 41.7764 -87.7567 158° South 277 319 11,100 2,160 Climbing Chicago Center
10:43PM 41.6842 -87.7097 159° South 296 341 13,300 1,680 Climbing Chicago Center
10:44PM 41.5944 -87.6617 158° South 341 392 14,600 1,380 Climbing Chicago Center
10:45PM 41.5008 -87.6133 159° South 357 411 16,200 1,560 Climbing Chicago Center
10:46PM 41.4036 -87.5694 161° South 365 420 17,800 1,260 Climbing Chicago Center
10:47PM 41.3006 -87.5508 172° South 372 428 18,900 540 Climbing Chicago Center
10:48PM 41.1933 -87.5311 172° South 383 441 19,000 180 Climbing Chicago Center
10:49PM 41.0861 -87.5036 169° South 391 450 19,300 720 Climbing Chicago Center
10:50PM 40.9744 -87.4728 168° South 406 467 20,500 1,140 Climbing Chicago Center
10:51PM 40.8644 -87.4419 168° South 408 470 21,700 1,260 Climbing Chicago Center
10:52PM 40.7286 -87.4078 169° South 413 475 23,100 1,260 Climbing Chicago Center
10:53PM 40.6167 -87.3778 169° South 412 474 24,300 900 Climbing Chicago Center
10:54PM 40.5039 -87.3481 169° South 413 475 25,000 720 Climbing Chicago Center
10:55PM 40.3950 -87.3086 165° South 423 487 25,800 900 Climbing Chicago Center
10:56PM 40.2861 -87.2581 160° South 419 482 26,900 540 Climbing Chicago Center
10:57PM 40.1756 -87.2064 160° South 424 488 27,000  Climbing Chicago Center
10:58PM 40.0589 -87.1517 160° South 439 505 27,000  Level Indianapolis Center
10:59PM 39.9478 -87.0861 156° South 443 510 27,000  Level Indianapolis Center
11:00PM 39.8428 -86.9964 147° Southeast 453 521 27,000  Level Indianapolis Center
11:01PM 39.7392 -86.9086 147° Southeast 450 518 27,000  Level Indianapolis Center
11:02PM 39.6336 -86.8219 148° Southeast 452 520 27,000  Level Indianapolis Center
11:03PM 39.5072 -86.7158 147° Southeast 454 522 27,000 -480 Level Indianapolis Center
11:04PM 39.4011 -86.6286 148° Southeast 456 525 26,100 -1,080 Descending Indianapolis Center
11:05PM 39.2956 -86.5417 147° Southeast 456 525 24,900 -1,200 Descending Indianapolis Center
11:06PM 39.1900 -86.4547 147° Southeast 455 524 23,700 -960 Descending Indianapolis Center
11:07PM 39.0883 -86.3708 147° Southeast 441 507 23,000 -360 Descending Indianapolis Center
11:08PM 38.9903 -86.2900 147° Southeast 426 490 23,000  Level Indianapolis Center
11:09PM 38.8775 -86.2011 148° Southeast 423 487 23,000  Level Indianapolis Center
11:10PM 38.7792 -86.1197 147° Southeast 420 483 23,000  Level Indianapolis Center
11:11PM 38.7022 -86.0056 131° Southeast 427 491 23,000 -540 Level Indianapolis Center
11:12PM 38.6392 -85.8717 121° Southeast 426 490 22,000 -1,440 Descending Indianapolis Center
11:13PM 38.5825 -85.7503 121° Southeast 412 474 20,100 -1,920 Descending Indianapolis Center
11:14PM 38.5250 -85.6286 121° Southeast 399 459 18,100 -1,920 Descending Indianapolis Center
11:15PM 38.4722 -85.5144 121° Southeast 379 436 16,200 -1,860 Descending Indianapolis Center
11:16PM 38.4197 -85.4008 121° Southeast 371 427 14,300 -1,620 Descending Indianapolis Center
11:17PM 38.3644 -85.2881 122° Southeast 373 429 12,900 -1,620 Descending Indianapolis Center
11:18PM 38.3067 -85.1675 121° Southeast 358 412 11,000 -1,020 Descending Indianapolis Center
11:19PM 38.2597 -85.0675 121° Southeast 331 381 10,900 -120 Descending Indianapolis Center
11:20PM 38.2150 -84.9739 121° Southeast 306 352 10,800 -840 Descending Indianapolis Center
11:22PM 38.1747 -84.8914 122° Southeast 276 318 9,200 -1,740 Descending Indianapolis Center
11:23PM 38.1281 -84.7978 122° Southeast 268 308 7,300 -1,800 Descending Indianapolis Center
11:24PM 38.1100 -84.7117 105° East 265 305 5,600 -1,680 Descending Indianapolis Center
11:25PM 38.1408 -84.6308 64° Northeast 282 325 3,900 -1,680 Descending Indianapolis Center